Monday, July 28, 2014, 2:27 PM EDT

KRIC, Richmond International Airport

Location: Sandston, VA, United States Lat: 37.517
Local Time: 2:27 PM EDT (18:27 GMT) Lon: -77.317
Time Zone: US/Eastern Elev: 167 ft

Show me the last for .
Show Decoded

2014-07-28 13:54 METAR KRIC 281754Z 27013G27KT 10SM SCT060 SCT090 29/14 A2972 RMK AO2 PK WND
                 25027/1749 SLP067 T02940139 10317 20272 51007 $ =
2014-07-28 12:54 METAR KRIC 281654Z 29008G21KT 10SM SCT060 31/14 A2972 RMK AO2 SLP065 T03110144 $
                 =
2014-07-28 11:54 METAR KRIC 281554Z 27018G27KT 10SM SCT060 31/15 A2971 RMK AO2 PK WND 27027/1552
                 SLP063 T03060150 $ =
2014-07-28 10:54 METAR KRIC 281454Z 27013G22KT 10SM SCT040 31/16 A2970 =
2014-07-28 09:54 METAR KRIC 281354Z 26012G19KT 10SM FEW040 29/17 A2969 RMK AO2 SLP054 T02940167 $
                 =
2014-07-28 08:54 METAR KRIC 281254Z 26014KT 10SM FEW200 28/19 A2968 RMK AO2 SLP052 T02830189 $ =
2014-07-28 07:54 METAR KRIC 281154Z 27010KT 10SM FEW100 SCT200 27/19 A2967 =
2014-07-28 06:54 METAR KRIC 281054Z 27012KT 10SM FEW200 SCT300 26/20 A2966 =
2014-07-28 05:54 METAR KRIC 280954Z 24013G20KT 10SM FEW210 BKN300 26/21 A2966 RMK AO2 SLP045
                 T02560206 $ =
2014-07-28 04:54 METAR KRIC 280854Z 24011KT 10SM SCT240 BKN300 26/22 A2963 RMK AO2 SLP035
                 T02610217 55009 $ =
2014-07-28 03:54 METAR KRIC 280754Z 22010KT 10SM FEW250 BKN300 26/22 A2963 =
2014-07-28 02:54 METAR KRIC 280654Z 22010KT 10SM FEW250 BKN300 26/22 A2964 RMK AO2 SLP040
                 T02610217 $ =
2014-07-28 01:54 METAR KRIC 280554Z 22009KT 10SM BKN220 OVC300 26/22 A2965 RMK AO2 SLP044
                 T02610222 10283 20250 58022 $ =
2014-07-28 00:54 METAR KRIC 280454Z 20009KT 10SM BKN300 26/22 A2968 RMK AO2 SLP052 T02560222
                 403170228 $ =
2014-07-27 23:54 METAR KRIC 280354Z 20010KT 10SM SCT250 26/22 A2971 RMK AO2 SLP064 T02610222 $ =
2014-07-27 22:54 METAR KRIC 280254Z 19007KT 10SM FEW050 SCT250 26/22 A2972 RMK AO2 SLP067
                 T02610222 58010 $ =
2014-07-27 21:54 METAR KRIC 280154Z 19007KT 10SM FEW050 SCT090 SCT250 26/22 A2974 =
2014-07-27 20:54 METAR KRIC 280054Z 21007KT 10SM FEW090 SCT250 27/21 A2975 =
2014-07-27 19:54 METAR KRIC 272354Z 20008KT 10SM FEW150 SCT250 28/21 A2975 RMK AO2 SLP078
                 T02830211 10317 20278 56010 $ =
2014-07-27 18:54 METAR KRIC 272254Z 22009KT 10SM FEW120 SCT250 29/21 A2976 RMK AO2 SLP080
                 T02940206 $ =
2014-07-27 17:54 METAR KRIC 272154Z 22010KT 10SM FEW035 SCT110 BKN250 30/21 A2976 =
2014-07-27 16:54 METAR KRIC 272054Z 24013G20KT 10SM FEW035 SCT110 BKN250 31/20 A2978 =
2014-07-27 15:54 METAR KRIC 271954Z 20015G18KT 10SM FEW035 SCT120 BKN250 31/21 A2980 =
2014-07-27 14:54 METAR KRIC 271854Z 23010KT 10SM FEW035 SCT120 BKN250 30/21 A2984 RMK AO2 SLP105
                 T03000211 $ =

Support USWX by starting your Amazon purchase here.